Tiempo atmosférico en la estación meteorológica de Fisterra, A Coruña (230 m.)



Fecha
DESCASC
Temp. máxima en grados centígrados (hora)
DESCASC
Temp. mínima en grados centígrados (hora)
DESCASC
Temp. media en grados centígrados
DESCASC
Racha de viento máxima en m/sg (hora)
DESCASC
Velocidad máxima media en intervalos de 10 minutos(hora)
DESCASC
Precipitaciones diarias en mm
DESCASC
Precipitaciones de 00:00 a 06:00 en mm
DESCASC
Precipitaciones de 06:00 a 12:00 en mm
DESCASC
Precipitaciones de 12:00 a 18:00 en mm
DESCASC
Precipitaciones de 18:00 a 24:00 en mm
DESCASC
16-01-2021 10.6 (16:30) 7 (00:00) 8.8 4.72 (12:20) 3.61 (00:50) 0 0 0 0 0
14-01-2021 10.9 (15:40) 8.3 (02:20) 9.6 6.11 (09:40) 5.28 (10:10) 0 0 0 0 0
17-01-2021 12.4 (12:30) 9.8 (00:00) 11.1 6.94 (23:40) 5.28 (23:50) 0 0 0 0 0
13-01-2021 9.3 (14:10) 6.5 (00:00) 7.9 7.5 (02:40) 5.56 (02:40) 0 0 0 0 0
15-01-2021 10.9 (12:20) 7.6 (00:00) 9.2 8.61 (20:20) 6.67 (19:30) 0.4 0.4 0 0 0
26-01-2021 13.7 (12:20) 12 (00:00) 12.8 9.17 (05:50) 7.22 (10:20) 5.8 1.2 1 2.8 0.8
05-01-2021 7.7 (14:10) 4 (00:00) 5.8 9.44 (19:20) 6.39 (14:30) 0.4 0 0.2 0.2 0
18-01-2021 13.4 (14:10) 8.9 (00:00) 11.1 9.72 (23:50) 6.11 (06:00) 0.2 0.2 0 0 0
12-01-2021 9.1 (15:20) 5.2 (00:00) 7.2 11.39 (00:40) 8.06 (00:40) 0 0 0 0 0
06-01-2021 8.5 (14:00) 3.5 (00:00) 6 12.22 (11:10) 6.94 (11:00) 0 0 0 0 0
04-01-2021 7.4 (16:50) 4.1 (00:00) 5.8 12.5 (04:20) 8.06 (04:20) 2.8 1 1.6 0.2 0
11-01-2021 9.5 (14:40) 5.3 (00:00) 7.4 13.89 (00:20) 9.72 (22:10) 0 0 0 0 0
07-01-2021 7.8 (14:20) 3.6 (00:00) 5.7 14.17 (07:50) 8.89 (07:50) 0.2 0 0 0 0.2
08-01-2021 7.5 (14:50) 3.3 (00:00) 5.4 16.39 (23:50) 11.67 (23:50) 0.8 0 0 0 0.8
30-12-2020 10.8 (16:20) 7 (00:00) 8.9 16.39 (23:30) 10.28 (18:30) 2.6 0.2 1 1.2 0.2
02-01-2021 8.6 (16:50) 5.1 (00:00) 6.9 17.22 (07:20) 9.44 (02:10) 8.8 2.2 2.4 3.2 1
03-01-2021 8.6 (13:20) 4.9 (00:00) 6.8 17.78 (14:50) 9.44 (13:30) 0.8 0 0 0.8 0
24-01-2021 11.6 (13:00) 8.9 (00:00) 10.3 18.06 (23:59) 13.61 (23:59) 7.4 0 0.2 0 7.2
31-12-2020 10.6 (05:00) 5.5 (00:00) 8.1 19.44 (20:40) 13.61 (05:10) 2.4 0.8 0.4 0.4 0.8
25-01-2021 13.3 (14:50) 10.8 (00:00) 12.1 21.39 (02:30) 15.56 (02:40) 6 4.8 1 0 0.2
29-12-2020 9.5 (00:30) 6.5 (00:00) 8 23.61 (10:00) 13.33 (10:00) 0.8 0.2 0.2 0 0.4
09-01-2021 7.2 (13:50) 3 (00:00) 5.1 23.61 (13:50) 12.78 (23:40) 1.4 0.6 0 0.4 0.4
10-01-2021 9.1 (14:20) 4.8 (01:20) 7 23.89 (00:50) 13.89 (00:10) 0.2 0.2 0 0 0
23-01-2021 12.7 (14:20) 9.2 (00:00) 10.9 24.17 (09:30) 19.72 (11:30) 4.4 0 1.8 2.2 0.4
01-01-2021 8.7 (10:50) 5 (00:00) 6.8 25 (15:50) 14.44 (15:50) 2.8 1 0.2 0.8 0.8
28-12-2020 10.3 (12:20) 7.1 (00:00) 8.7 25.28 (01:20) 11.11 (00:50) 0.6 0 0 0.4 0.2
22-01-2021 11.1 (15:00) 7.5 (00:00) 9.3 27.78 (01:20) 17.78 (00:20) 6.4 5.6 0.2 0 0.6
21-01-2021 12.9 (16:10) 9 (00:00) 10.9 30 (09:10) 22.22 (08:40) 10.6 0.2 3 0.6 6.8
19-01-2021 10.5 (11:50) 9.2 (00:00) 9.8 31.67 (23:59) 16.94 (22:30) 13 0 0 4.8 8.2
20-01-2021 12.1 (13:10) 9.8 (00:00) 11 34.44 (00:40) 21.39 (07:30) 29.8 20 8.6 1 0.2

Gráficas

Temp. máximas Temp. mínimas Temp. medias Precipitaciones Rachas de viento máximas Velocidades máximas media en intervalos de 10 minutos

Datos horarios

Fecha y hora oficial Temperatura (ºC) Velocidad del viento (km/h) Dirección del viento Racha (km/h) Dirección de racha Precipitación (mm) Presión (hPa) Tendencia (hPa) Humedad (%)
2021-01-26 23:00:00 12 9 Sur 17 Sudoeste 0 997.1 -- 98
2021-01-26 22:00:00 12.1 12 Sudoeste 21 Oeste 0 997.1 -- 98
2021-01-26 21:00:00 12.3 14 Oeste 22 Oeste 0.2 996.7 -- 98
2021-01-26 20:00:00 12.4 16 Oeste 22 Oeste 0 996.6 -- 98
2021-01-26 19:00:00 12.6 15 Oeste 24 Oeste 0.4 995.6 -- 98
2021-01-26 18:00:00 12.7 21 Oeste 25 Oeste 0.2 995.3 -- 98
2021-01-26 17:00:00 12.9 15 Oeste 22 Oeste 0.2 994.7 -- 98
2021-01-26 16:00:00 13.1 12 Oeste 21 Sudoeste 1.4 994.3 -- 98
2021-01-26 15:00:00 13.1 17 Sudoeste 22 Sudoeste 0.6 994 -- 98
2021-01-26 14:00:00 13.1 15 Sudoeste 22 Sudoeste 0.4 994.1 -- 98
2021-01-26 13:00:00 13.3 17 Sudoeste 21 Sudoeste 0 994.5 -- 98
2021-01-26 12:00:00 13.4 16 Sudoeste 27 Sudoeste 0.2 994.1 -- 98
2021-01-26 11:00:00 12.7 25 Sudoeste 31 Sudoeste 0 993.7 -- 98
2021-01-26 10:00:00 12.5 23 Sudoeste 32 Sudoeste 0 992.8 -- 98
2021-01-26 09:00:00 12.5 21 Sudoeste 27 Sudoeste 0.2 992.4 -- 98
2021-01-26 08:00:00 12.5 20 Sudoeste 26 Sudoeste 0.2 992.1 -- 98
2021-01-26 07:00:00 12.4 19 Sudoeste 31 Sur 0.4 991.7 -- 98
2021-01-26 06:00:00 12.4 22 Sur 33 Sudoeste 0.4 991.1 -- 98
2021-01-26 05:00:00 12.5 19 Sur 32 Sudoeste 0.4 990.9 -- 98
2021-01-26 04:00:00 12.4 19 Sudoeste 28 Sudoeste 0.2 991.3 -- 98
2021-01-26 03:00:00 12.3 22 Sudoeste 26 Sudoeste 0 990.9 -- 98
2021-01-26 02:00:00 12.3 22 Sudoeste 27 Sudoeste 0.2 990.7 -- 98
2021-01-26 01:00:00 12.3 17 Sur 25 Sudoeste 0 990.4 -- 98
2021-01-26 00:00:00 12.1 19 Sur 24 Sudoeste 0.2 990.4 -- 98
2021-01-25 23:00:00 11.9 16 Sur 26 Sur 0 990.1 -- 98
2021-01-25 22:00:00 11.5 20 Sur 26 Sur 0 989.4 -- 98
2021-01-25 21:00:00 11.1 15 Sur 18 Sur 0 988.9 -- 98
2021-01-25 20:00:00 10.9 13 Sur 18 Sur 0 988.8 -- 98
2021-01-25 19:00:00 10.9 10 Sur 13 Sur 0 987.9 -- 98
2021-01-25 18:00:00 11.2 3 Oeste 13 Oeste 0 987.2 -- 98
2021-01-25 17:00:00 11.5 6 Oeste 12 Sudoeste 0 986.3 -- 98
2021-01-25 16:00:00 12 5 Oeste 10 Oeste 0 986 -- 98
2021-01-25 15:00:00 13 4 Sudoeste 13 Sur 0 985.3 -- 98
2021-01-25 14:00:00 11.4 9 Norte 19 Norte 0 984.8 -- 98
2021-01-25 13:00:00 11.8 12 Norte 22 Norte 0 984.9 -- 98
2021-01-25 12:00:00 11.8 17 Norte 39 Noroeste 0 984.3 -- 98
2021-01-25 11:00:00 12.2 21 Noroeste 47 Noroeste 0.2 983.3 -- 98
2021-01-25 10:00:00 12.1 25 Noroeste 51 Noroeste 0.2 982.3 -- 98
2021-01-25 09:00:00 12.2 37 Oeste 55 Oeste 0.4 981.3 -- 98
2021-01-25 08:00:00 12.2 45 Oeste 55 Oeste 0.2 980.4 -- 98
2021-01-25 07:00:00 12.3 48 Oeste 65 Oeste 0 980.1 -- 98
2021-01-25 06:00:00 12.4 47 Oeste 62 Oeste 0.2 980 -- 98
2021-01-25 05:00:00 12.2 53 Oeste 73 Oeste 0.2 979.8 -- 97
2021-01-25 04:00:00 12.4 55 Oeste 71 Oeste 0.2 979.6 -- 97
2021-01-25 03:00:00 12.7 56 Oeste 77 Oeste 0.2 979.4 -- 97
2021-01-25 02:00:00 12.6 56 Sudoeste 72 Oeste 1.6 979.6 -- 97
2021-01-25 01:00:00 11.9 51 Sudoeste 67 Sudoeste 2.4 980 -- 97
2021-01-25 00:00:00 11.5 49 Sudoeste 65 Sudoeste 1.8 980.9 -- 97
2021-01-24 23:00:00 11.4 41 Sudoeste 55 Sudoeste 3 981.9 -- 96
2021-01-24 22:00:00 11.1 35 Sudoeste 45 Sudoeste 1.6 982.8 -- 96
2021-01-24 21:00:00 10.8 31 Sudoeste 43 Sudoeste 0.6 983.6 -- 95
2021-01-24 20:00:00 11.1 25 Sudoeste 43 Sudoeste 0.2 984.5 -- 94
2021-01-24 19:00:00 11.1 32 Sudoeste 41 Sudoeste 0 985 -- 94
2021-01-24 18:00:00 11.1 32 Sudoeste 41 Sudoeste 0 985.4 -- 93
2021-01-24 17:00:00 11.2 30 Sudoeste 41 Sudoeste 0 985.9 -- 92
2021-01-24 16:00:00 11.4 27 Sudoeste 41 Oeste 0 985.7 -- 91
2021-01-24 15:00:00 11.1 32 Oeste 44 Oeste 0 986.3 -- 89
2021-01-24 14:00:00 11.5 28 Oeste 48 Oeste 0 986.4 -- 89
2021-01-24 13:00:00 11.4 35 Oeste 48 Oeste 0 986.8 -- 88
2021-01-24 12:00:00 10.6 38 Oeste 46 Oeste 0 986.9 -- 88
2021-01-24 11:00:00 10.6 31 Oeste 45 Oeste 0.2 986.4 -- 93
2021-01-24 10:00:00 9.9 33 Oeste 50 Sudoeste 0 986 -- 92
2021-01-24 09:00:00 10 27 Oeste 36 Oeste 0 985.8 -- 89
2021-01-24 08:00:00 9.9 30 Oeste 43 Oeste 0 985.7 -- 87
2021-01-24 07:00:00 9.4 25 Oeste 42 Noroeste 0 985.8 -- 89
2021-01-24 06:00:00 9.7 25 Noroeste 42 Noroeste 0 985.7 -- 89
2021-01-24 05:00:00 9.3 20 Noroeste 41 Oeste 0 985.6 -- 89
2021-01-24 04:00:00 9.1 17 Noroeste 38 Noroeste 0 985.4 -- 90
2021-01-24 03:00:00 9.1 15 Noroeste 41 Noroeste 0 984.8 -- 89
2021-01-24 02:00:00 9.4 15 Noroeste 36 Noroeste 0 984.1 -- 90
2021-01-24 01:00:00 9.6 13 Noroeste 52 Noroeste 0 983 -- 90
2021-01-24 00:00:00 10.3 23 Noroeste 66 Noroeste 0 981.8 -- 90
2021-01-23 23:00:00 10.8 28 Noroeste 72 Oeste 0 980.4 -- 94
2021-01-23 22:00:00 11.1 45 Noroeste 75 Oeste 0 979.6 -- 86
2021-01-23 21:00:00 11.2 50 Oeste 77 Oeste 0 978.9 -- 87
2021-01-23 20:00:00 11.4 46 Oeste 70 Oeste 0.2 978.8 -- 91
2021-01-23 19:00:00 11.4 45 Noroeste 70 Oeste 0.2 978.4 -- 91
2021-01-23 18:00:00 11.6 48 Oeste 67 Noroeste 0 977.8 -- 91
2021-01-23 17:00:00 11.8 42 Oeste 68 Noroeste 0 977.3 -- 92
2021-01-23 16:00:00 11.7 45 Oeste 66 Oeste 0 976.9 -- 97
2021-01-23 15:00:00 11.7 54 Oeste 80 Oeste 0.6 976 -- 97
2021-01-23 14:00:00 12.6 59 Oeste 78 Oeste 0.8 976.7 -- 97
2021-01-23 13:00:00 12.4 62 Oeste 84 Oeste 0.8 977.2 -- 97
2021-01-23 12:00:00 11.8 62 Sudoeste 86 Sudoeste 0.6 977.8 -- 97
2021-01-23 11:00:00 10.8 66 Sudoeste 87 Sudoeste 0.4 978.1 -- 96
2021-01-23 10:00:00 10.7 66 Sudoeste 87 Sudoeste 0.2 979 -- 95
2021-01-23 09:00:00 11 53 Sudoeste 75 Sudoeste 0.2 980.4 -- 94
2021-01-23 08:00:00 10.8 53 Sudoeste 73 Sudoeste 0.2 981 -- 93
2021-01-23 07:00:00 10.7 53 Sudoeste 66 Sudoeste 0.2 981.7 -- 91
2021-01-23 06:00:00 10.4 42 Sudoeste 60 Oeste 0 983.1 -- 89
2021-01-23 05:00:00 10.7 47 Oeste 69 Oeste 0 984.4 -- 82
2021-01-23 04:00:00 10.5 50 Oeste 69 Oeste 0 984.6 -- 81
2021-01-23 03:00:00 10.5 46 Oeste 67 Oeste 0 985.1 -- 85
2021-01-23 02:00:00 10.1 46 Oeste 64 Oeste 0 985.5 -- 82
2021-01-23 01:00:00 9.8 40 Oeste 83 Oeste 0 986.2 -- 86
2021-01-23 00:00:00 10 48 Oeste 76 Oeste 0 985.9 -- 85
2021-01-22 23:00:00 9.5 49 Oeste 67 Oeste 0 985.9 -- 84
2021-01-22 22:00:00 8.9 44 Oeste 75 Oeste 0.4 985.7 -- 78
2021-01-22 21:00:00 9.6 41 Oeste 71 Noroeste 0.2 986.2 -- 86
2021-01-22 20:00:00 10 36 Oeste 62 Noroeste 0 986 -- 79
2021-01-22 19:00:00 9.9 36 Oeste 57 Oeste 0 985.6 -- 81
2021-01-22 18:00:00 9 32 Noroeste 70 Noroeste 0 985.4 -- 86
2021-01-22 17:00:00 10.3 35 Noroeste 63 Oeste 0 985.2 -- 79
2021-01-22 16:00:00 10.6 45 Oeste 57 Oeste 0 984.9 -- 74
2021-01-22 15:00:00 10.4 36 Oeste 50 Oeste 0 984.3 -- 77
2021-01-22 14:00:00 10.3 30 Oeste 45 Oeste 0 984.6 -- 80
2021-01-22 13:00:00 9.8 23 Noroeste 43 Noroeste 0 985.1 -- 75
2021-01-22 12:00:00 9.2 24 Noroeste 46 Noroeste 0 984.7 -- 75
2021-01-22 11:00:00 8.9 17 Noroeste 45 Noroeste 0 983.9 -- 77
2021-01-22 10:00:00 8.6 15 Noroeste 47 Noroeste 0 982.6 -- 83
2021-01-22 09:00:00 8.2 14 Noroeste 41 Noroeste 0 981.5 -- 83
2021-01-22 08:00:00 7.6 21 Noroeste 69 Noroeste 0.2 980.2 -- 89
2021-01-22 07:00:00 8.5 17 Noroeste 48 Noroeste 0 979 -- 82
2021-01-22 06:00:00 8.7 20 Noroeste 54 Norte 0 977.3 -- 87
2021-01-22 05:00:00 8.7 19 Noroeste 54 Noroeste 0 975.8 -- 94
2021-01-22 04:00:00 8.4 24 Noroeste 98 Noroeste 2.8 973.3 -- 95
2021-01-22 03:00:00 8.5 43 Oeste 82 Norte 0 972.8 -- 90
2021-01-22 02:00:00 8.8 46 Noroeste 100 Noroeste 1 972 -- 88
2021-01-22 01:00:00 9.1 50 Oeste 86 Oeste 1.8 972.3 -- 95
2021-01-22 00:00:00 10.4 50 Oeste 69 Oeste 0 972.2 -- 91
2021-01-21 23:00:00 9.1 42 Sudoeste 75 Oeste 3 971.9 -- 93
2021-01-21 22:00:00 9.8 45 Oeste 94 Oeste 3 974.3 -- 93
2021-01-21 21:00:00 11.5 53 Sudoeste 80 Oeste 0.8 974.8 -- 93
2021-01-21 20:00:00 11.6 50 Sudoeste 70 Sudoeste 0 975.9 -- 92
2021-01-21 19:00:00 11.6 49 Oeste 78 Oeste 0 976.8 -- 91
2021-01-21 18:00:00 11.8 52 Sudoeste 71 Sudoeste 0 976.8 -- 91
2021-01-21 17:00:00 12 52 Oeste 76 Oeste 0 976.9 -- 88
2021-01-21 16:00:00 12.8 52 Oeste 78 Oeste 0 976.6 -- 86
2021-01-21 15:00:00 12.4 69 Oeste 87 Oeste 0.6 976.8 -- 85
2021-01-21 14:00:00 12.3 55 Oeste 85 Oeste 0 977.3 -- 88
2021-01-21 13:00:00 12.2 57 Oeste 77 Oeste 0 977.4 -- 91
2021-01-21 12:00:00 11.9 55 Oeste 77 Oeste 0 977.4 -- 94
2021-01-21 11:00:00 11.9 56 Oeste 86 Oeste 0 976.8 -- 97
2021-01-21 10:00:00 12.1 68 Sudoeste 108 Sudoeste 0.8 975.7 -- 97
2021-01-21 09:00:00 11.6 79 Sudoeste 107 Sudoeste 0.8 974.6 -- 97
2021-01-21 08:00:00 11.3 70 Sudoeste 91 Sudoeste 1 975.5 -- 97
2021-01-21 07:00:00 11.4 65 Sudoeste 88 Sudoeste 0.4 976.7 -- 97
2021-01-21 06:00:00 11.3 61 Sudoeste 76 Sudoeste 0 977.1 -- 97
2021-01-21 05:00:00 10.9 54 Sudoeste 68 Sudoeste 0 978.1 -- 96
2021-01-21 04:00:00 10.5 45 Sudoeste 60 Sudoeste 0.2 979 -- 96
2021-01-21 03:00:00 10.7 37 Sudoeste 49 Sudoeste 0 979.3 -- 95
2021-01-21 02:00:00 10.5 33 Oeste 55 Oeste 0 979.2 -- 94
2021-01-21 01:00:00 10.7 42 Oeste 55 Oeste 0 979 -- 95
2021-01-21 00:00:00 10.8 32 Oeste 52 Oeste 0 978.5 -- 95
2021-01-20 23:00:00 10.9 36 Noroeste 57 Oeste 0 977.7 -- 95
2021-01-20 22:00:00 10.9 38 Oeste 62 Oeste 0.2 976.9 -- 94
2021-01-20 21:00:00 11 44 Oeste 68 Oeste 0 975.8 -- 95
2021-01-20 20:00:00 11.3 51 Oeste 71 Oeste 0 974.9 -- 93
2021-01-20 19:00:00 11.1 50 Oeste 63 Oeste 0 973.8 -- 96
2021-01-20 18:00:00 11.4 49 Oeste 62 Oeste 0 972.7 -- 95
2021-01-20 17:00:00 11.4 48 Oeste 73 Oeste 0 971.9 -- 94
2021-01-20 16:00:00 11.3 48 Oeste 80 Oeste 0.6 971.2 -- 96
2021-01-20 15:00:00 11.4 54 Oeste 84 Oeste 0.2 970.5 -- 95
2021-01-20 14:00:00 11.9 54 Oeste 82 Sudoeste 0.2 970.4 -- 96
2021-01-20 13:00:00 11.9 57 Oeste 79 Oeste 0 970.3 -- 97
2021-01-20 12:00:00 11.5 58 Sudoeste 91 Sudoeste 0 970 -- 97
2021-01-20 11:00:00 11.4 66 Sudoeste 98 Oeste 1.2 968.8 -- 97
2021-01-20 10:00:00 11.3 66 Oeste 98 Sudoeste 3.2 968.1 -- 97
2021-01-20 09:00:00 11.4 68 Sudoeste 91 Sudoeste 2 968 -- 97
2021-01-20 08:00:00 11.4 71 Sudoeste 125 Sudoeste 1.6 968.1 -- 97
2021-01-20 07:00:00 11.6 58 Sudoeste 98 Sur 0.6 968.4 -- 97
2021-01-20 06:00:00 11.2 57 Sudoeste 94 Sudoeste 0.6 969.5 -- 97
2021-01-20 05:00:00 10.7 56 Sudoeste 106 Sudoeste 4.2 969.6 -- 97
2021-01-20 04:00:00 10.8 46 Sur 100 Sudoeste 4 969.9 -- 97
2021-01-20 03:00:00 10.5 46 Sur 102 Sur 7.8 971.3 -- 97
2021-01-20 02:00:00 10.2 60 Sur 116 Sur 2 972.2 -- 97
2021-01-20 01:00:00 9.9 61 Sur 124 Sur 1.4 973 -- 97
2021-01-20 00:00:00 10 58 Sur 114 Sur 1.6 974.3 -- 97
2021-01-19 23:00:00 10.2 59 Sur 111 Sur 1.4 975.5 -- 97
2021-01-19 22:00:00 10 58 Sur 109 Sur 1.4 976.3 -- 97
2021-01-19 21:00:00 10.1 53 Sur 108 Sur 1.4 977.9 -- 96
2021-01-19 20:00:00 10.2 55 Sur 104 Sur 1 979.1 -- 96
2021-01-19 19:00:00 10.2 48 Sur 104 Sur 1.4 980.2 -- 96
2021-01-19 18:00:00 10.3 46 Sur 99 Sur 0.8 981.3 -- 96
2021-01-19 17:00:00 10.2 49 Sur 101 Sur 0.4 982.3 -- 96
2021-01-19 16:00:00 10 48 Sur 95 Sur 3 983.2 -- 96
2021-01-19 15:00:00 10 43 Sur 82 Sur 0.2 984.9 -- 95
2021-01-19 14:00:00 9.9 44 Sur 86 Sur 0 985.7 -- 94
2021-01-19 13:00:00 9.9 45 Sur 81 Sur 0.4 986.8 -- 92
2021-01-19 12:00:00 10.4 42 Sur 72 Sur 0 988.6 -- 91
2021-01-19 11:00:00 10.2 39 Sur 69 Sur 0 989.2 -- 90
2021-01-19 10:00:00 10 39 Sur 68 Sur 0 989.1 -- 91
2021-01-19 09:00:00 9.9 38 Sur 72 Sur 0 989.4 -- 90
2021-01-19 08:00:00 10.3 35 Sur 58 Sur 0 990.2 -- 88
2021-01-19 07:00:00 10.2 32 Sur 58 Sudoeste 0 990.8 -- 82
2021-01-19 06:00:00 9.8 36 Sudoeste 60 Sudoeste 0 991.3 -- 84
2021-01-19 05:00:00 9.6 40 Sudoeste 60 Sudoeste 0 992.1 -- 89
2021-01-19 04:00:00 9.6 48 Sudoeste 64 Sudoeste 0 992.8 -- 88
2021-01-19 03:00:00 9.5 26 Sur 52 Sudoeste 0 993.1 -- 89
2021-01-19 02:00:00 9.3 39 Sudoeste 52 Sudoeste 0 994.3 -- 89
2021-01-19 01:00:00 9.5 24 Sur 42 Sur 0 994.7 -- 91
2021-01-19 00:00:00 9.7 20 Sur 35 Sur 0 995.6 -- 91
2021-01-18 23:00:00 9.6 16 Sur 27 Sur 0 995.9 -- 90
2021-01-18 22:00:00 9.5 16 Sur 25 Sur 0 995.8 -- 89
2021-01-18 21:00:00 9.8 11 Sur 21 Sudoeste 0 996.6 -- 90
2021-01-18 20:00:00 9.3 8 Sudoeste 9 Sudoeste 0 996.8 -- 87
2021-01-18 19:00:00 9.8 4 Oeste 10 Sudoeste 0 996.7 -- 86
2021-01-18 18:00:00 12 6 Sur 15 Sur 0 996.6 -- 81
2021-01-18 17:00:00 12.7 7 Sur 13 Sur 0 996.6 -- 78
2021-01-18 16:00:00 12.5 6 Sur 14 Sur 0 997.1 -- 79
2021-01-18 15:00:00 12.8 9 Sur 17 Sur 0 997.4 -- 76
2021-01-18 14:00:00 13.3 4 Sur 13 Sur 0 998.1 -- 75
2021-01-18 13:00:00 12.9 7 Sur 12 Sur 0 999 -- 74
2021-01-18 12:00:00 12 6 Sur 13 Sur 0 999.7 -- 78
2021-01-18 11:00:00 10.6 3 Oeste 7 Sudoeste 0 999.7 -- 80
2021-01-18 10:00:00 9.6 8 Oeste 10 Oeste 0 999.4 -- 83
2021-01-18 09:00:00 9.5 7 Sur 12 Sudeste 0 999.2 -- 83
2021-01-18 08:00:00 9.2 10 Este 28 Este 0 999.3 -- 85
2021-01-18 07:00:00 9.1 21 Este 31 Nordeste 0 999.2 -- 88
2021-01-18 06:00:00 9.3 22 Nordeste 28 Nordeste 0 999.3 -- 89
2021-01-18 05:00:00 9.6 19 Nordeste 30 Nordeste 0 999.8 -- 88
2021-01-18 04:00:00 9.7 19 Nordeste 27 Nordeste 0 1000.3 -- 89
2021-01-18 03:00:00 10 17 Nordeste 28 Nordeste 0 1000.5 -- 89
2021-01-18 02:00:00 10.4 17 Nordeste 32 Nordeste 0.2 1001.1 -- 85
2021-01-18 01:00:00 10.3 15 Nordeste 24 Nordeste 0 1001.6 -- 89
2021-01-18 00:00:00 10.8 16 Nordeste 25 Nordeste 0 1002.1 -- 86
2021-01-17 23:00:00 10.8 14 Nordeste 23 Nordeste 0 1001.9 -- 87
2021-01-17 22:00:00 11.1 11 Nordeste 19 Nordeste 0 1002 -- 81
2021-01-17 21:00:00 11.2 13 Nordeste 24 Nordeste 0 1002.5 -- 81
2021-01-17 20:00:00 11.2 15 Nordeste 22 Nordeste 0 1002.7 -- 81
2021-01-17 19:00:00 11.1 13 Nordeste 20 Nordeste 0 1002.6 -- 85
2021-01-17 18:00:00 11.3 13 Norte 18 Norte 0 1002.5 -- 86
2021-01-17 17:00:00 11.2 14 Norte 19 Norte 0 1002.3 -- 90
2021-01-17 16:00:00 11.6 12 Norte 21 Norte 0 1002.2 -- 88
2021-01-17 15:00:00 11.3 9 Norte 12 Norte 0 1002.5 -- 91
2021-01-17 14:00:00 12 4 Noroeste 15 Norte 0 1003 -- 85
2021-01-17 13:00:00 12 7 Norte 18 Norte 0 1003.8 -- 83
2021-01-17 12:00:00 12.2 4 Oeste 12 Norte 0 1004.3 -- 87
2021-01-17 11:00:00 11.2 7 Norte 15 Norte 0 1004.1 -- 86
2021-01-17 10:00:00 10.8 6 Oeste 22 Norte 0 1003.6 -- 89
2021-01-17 09:00:00 10.7 6 Noroeste 18 Noroeste 0 1003.1 -- 88
2021-01-17 08:00:00 10.8 13 Oeste 24 Noroeste 0 1002.8 -- 87
2021-01-17 07:00:00 10.8 15 Noroeste 22 Noroeste 0 1002.3 -- 87
2021-01-17 06:00:00 10.6 10 Noroeste 24 Norte 0 1002.4 -- 88
2021-01-17 05:00:00 10.4 8 Noroeste 14 Noroeste 0 1002.6 -- 89
2021-01-17 04:00:00 10.2 7 Noroeste 14 Noroeste 0 1002.6 -- 91
2021-01-17 03:00:00 10 8 Oeste 16 Oeste 0 1002.5 -- 92
2021-01-17 02:00:00 9.8 6 Oeste 14 Oeste 0 1002.6 -- 93
2021-01-17 01:00:00 10 6 Sur 14 Oeste 0 1002.9 -- 93
2021-01-17 00:00:00 10.1 5 Oeste 15 Oeste 0 1003.1 -- 93
2021-01-16 23:00:00 10.2 9 Oeste 14 Oeste 0 1003.4 -- 93
2021-01-16 22:00:00 10.3 7 Oeste 13 Oeste 0 1003.1 -- 92
2021-01-16 21:00:00 10.3 3 Oeste 6 Oeste 0 1003 -- 91
2021-01-16 20:00:00 10.1 2 Oeste 12 Noroeste 0 1003 -- 91
2021-01-16 19:00:00 9.8 3 Sur 10 Oeste 0 1002.8 -- 90
2021-01-16 18:00:00 10.1 6 Sudoeste 12 Oeste 0 1002.6 -- 89
2021-01-16 17:00:00 10.4 5 Oeste 12 Oeste 0 1002.1 -- 88
2021-01-16 16:00:00 10.3 4 Noroeste 10 Oeste 0 1002 -- 87
2021-01-16 15:00:00 10.4 6 Oeste 12 Oeste 0 1002.2 -- 87
2021-01-16 14:00:00 10.3 5 Oeste 12 Oeste 0 1002.3 -- 86
2021-01-16 13:00:00 10.2 4 Sudoeste 17 Sur 0 1002.7 -- 85
2021-01-16 12:00:00 9.1 8 Sur 12 Sur 0 1003 -- 84
2021-01-16 11:00:00 9.1 6 Sudoeste 12 Sudoeste 0 1002.7 -- 85
2021-01-16 10:00:00 8.3 6 Sudoeste 12 Sudoeste 0 1002.2 -- 86
2021-01-16 09:00:00 7.8 6 Sudoeste 8 Sudoeste 0 1002.1 -- 84
2021-01-16 08:00:00 7.4 7 Sur 10 Sur 0 1001.9 -- 84
2021-01-16 07:00:00 7.4 8 Sur 10 Sur 0 1001.8 -- 86
2021-01-16 06:00:00 7.5 7 Sur 8 Sudoeste 0 1002 -- 87
2021-01-16 05:00:00 7.4 6 Oeste 11 Oeste 0 1002.3 -- 86
2021-01-16 04:00:00 7.2 9 Oeste 12 Noroeste 0 1002.2 -- 84
2021-01-16 03:00:00 7.5 3 Oeste 12 Nordeste 0 1001.9 -- 81
2021-01-16 02:00:00 8 9 Nordeste 14 Nordeste 0 1002.3 -- 77
2021-01-16 01:00:00 7.5 12 Norte 16 Norte 0 1002.7 -- 76
2021-01-16 00:00:00 7.6 9 Norte 10 Norte 0 1002.9 -- 76
2021-01-15 23:00:00 8 5 Sudoeste 15 Nordeste 0 1002.6 -- 78
2021-01-15 22:00:00 8.1 15 Nordeste 28 Nordeste 0 1002.3 -- 76
2021-01-15 21:00:00 8.2 20 Nordeste 31 Nordeste 0 1002.1 -- 79
2021-01-15 20:00:00 8.4 24 Nordeste 30 Norte 0 1002.2 -- 78
2021-01-15 19:00:00 8.9 21 Norte 28 Norte 0 1002.3 -- 81
2021-01-15 18:00:00 9.6 13 Norte 21 Norte 0 1001.8 -- 78
2021-01-15 17:00:00 10.3 14 Norte 22 Norte 0 1001.7 -- 78
2021-01-15 16:00:00 10.4 16 Norte 26 Norte 0 1001.8 -- 76
2021-01-15 15:00:00 10.5 13 Norte 27 Norte 0 1002.2 -- 79
2021-01-15 14:00:00 10.7 13 Norte 20 Norte 0 1002.7 -- 80
2021-01-15 13:00:00 10.8 11 Nordeste 17 Nordeste 0 1003.3 -- 80
2021-01-15 12:00:00 10.5 9 Nordeste 15 Nordeste 0 1003.9 -- 81
2021-01-15 11:00:00 9.6 9 Nordeste 14 Norte 0 1003.4 -- 84
2021-01-15 10:00:00 9 12 Nordeste 15 Nordeste 0 1002.7 -- 89
2021-01-15 09:00:00 8.5 11 Nordeste 22 Nordeste 0 1002.5 -- 90
2021-01-15 08:00:00 9 17 Nordeste 23 Norte 0 1002.4 -- 92
2021-01-15 07:00:00 9 14 Nordeste 18 Nordeste 0 1002.3 -- 93
2021-01-15 06:00:00 9.5 0 Calma 8 Nordeste 0 1002.3 -- 93
2021-01-15 05:00:00 9.7 3 Nordeste 6 Sudeste 0 1002.6 -- 93
2021-01-15 04:00:00 9.9 5 Nordeste 9 Este 0 1002.7 -- 93
2021-01-15 03:00:00 9.9 5 Sur 8 Sur 0.4 1002.6 -- 91
2021-01-15 02:00:00 9.9 4 Sur 7 Sur 0 1003.1 -- 91
2021-01-15 01:00:00 9.9 5 Sur 9 Sur 0 1003.3 -- 91
2021-01-15 00:00:00 9.9 5 Sur 10 Sur 0 1003.3 -- 90
2021-01-14 23:00:00 9.9 4 Sur 8 Sur 0 1003.3 -- 89
2021-01-14 22:00:00 10 3 Este 7 Sudeste 0 1002.9 -- 90
2021-01-14 21:00:00 9.7 4 Sudeste 9 Sur 0 1002.7 -- 90
2021-01-14 20:00:00 9.4 4 Sur 9 Sur 0 1002.8 -- 89
2021-01-14 19:00:00 9.4 6 Sur 9 Este 0 1002.8 -- 87
2021-01-14 18:00:00 9.8 5 Sudeste 14 Sur 0 1002.7 -- 85
2021-01-14 17:00:00 10.2 8 Sur 14 Sur 0 1002.6 -- 83
2021-01-14 16:00:00 10.9 8 Sudoeste 17 Sudoeste 0 1002.7 -- 82
2021-01-14 15:00:00 10.5 6 Sur 15 Sur 0 1002.9 -- 80
2021-01-14 14:00:00 10.2 11 Sur 18 Sur 0 1003.2 -- 79
2021-01-14 13:00:00 9.9 12 Sur 18 Sur 0 1003.7 -- 78
2021-01-14 12:00:00 9.5 13 Sur 17 Sur 0 1004 -- 80
2021-01-14 11:00:00 9.1 11 Sudeste 22 Sur 0 1003.6 -- 81
2021-01-14 10:00:00 8.8 17 Sur 22 Sur 0 1003.1 -- 80
2021-01-14 09:00:00 8.5 15 Sur 21 Sur 0 1003 -- 81
2021-01-14 08:00:00 8.6 13 Sur 22 Sudoeste 0 1002.9 -- 81
2021-01-14 07:00:00 8.6 12 Sur 20 Sur 0 1003 -- 80
2021-01-14 06:00:00 8.6 13 Sur 21 Sur 0 1003.1 -- 78
2021-01-14 05:00:00 8.6 13 Sur 19 Sur 0 1003.1 -- 78
2021-01-14 04:00:00 8.6 9 Sur 15 Sur 0 1003.4 -- 78
2021-01-14 03:00:00 8.3 9 Sudeste 18 Sur 0 1003.2 -- 79
2021-01-14 02:00:00 8.4 9 Sudeste 13 Sudeste 0 1003.4 -- 78
2021-01-14 01:00:00 8.7 6 Sur 16 Oeste 0 1004 -- 75
2021-01-14 00:00:00 8.6 8 Sudoeste 21 Oeste 0 1004.2 -- 75
2021-01-13 23:00:00 8.4 11 Oeste 19 Oeste 0 1004.4 -- 75
2021-01-13 22:00:00 8.4 13 Oeste 24 Oeste 0 1004.3 -- 74
2021-01-13 21:00:00 8.1 8 Noroeste 19 Oeste 0 1004.2 -- 75
2021-01-13 20:00:00 8.1 5 Noroeste 17 Noroeste 0 1003.9 -- 76
2021-01-13 19:00:00 8 9 Oeste 19 Oeste 0 1003.8 -- 75
2021-01-13 18:00:00 8.1 6 Noroeste 21 Noroeste 0 1003.6 -- 75
2021-01-13 17:00:00 8.5 5 Noroeste 18 Noroeste 0 1003.4 -- 75
2021-01-13 16:00:00 8.7 10 Noroeste 21 Noroeste 0 1003.3 -- 73
2021-01-13 15:00:00 8.8 12 Norte 21 Noroeste 0 1003.1 -- 71
2021-01-13 14:00:00 9.1 10 Noroeste 19 Noroeste 0 1003.6 -- 70
2021-01-13 13:00:00 9 7 Norte 14 Norte 0 1004.3 -- 70
2021-01-13 12:00:00 8.2 9 Nordeste 17 Nordeste 0 1004.7 -- 72
2021-01-13 11:00:00 8.1 8 Nordeste 16 Este 0 1004.5 -- 72
2021-01-13 10:00:00 7.3 12 Nordeste 20 Nordeste 0 1004.2 -- 73
2021-01-13 09:00:00 6.8 11 Este 17 Este 0 1004.1 -- 75
2021-01-13 08:00:00 7.1 10 Nordeste 20 Nordeste 0 1003.9 -- 74
2021-01-13 07:00:00 7 12 Nordeste 20 Nordeste 0 1003.4 -- 74
2021-01-13 06:00:00 7.1 13 Nordeste 23 Nordeste 0 1003.5 -- 74
2021-01-13 05:00:00 7.2 15 Nordeste 23 Nordeste 0 1003.5 -- 75
2021-01-13 04:00:00 7.1 17 Nordeste 24 Nordeste 0 1003.7 -- 75
2021-01-13 03:00:00 6.7 19 Nordeste 27 Nordeste 0 1003.3 -- 75
2021-01-13 02:00:00 6.8 18 Nordeste 24 Nordeste 0 1003.6 -- 75
2021-01-13 01:00:00 6.8 18 Nordeste 25 Nordeste 0 1003.7 -- 76
2021-01-13 00:00:00 6.8 16 Nordeste 22 Este 0 1003.9 -- 75
2021-01-12 23:00:00 7 17 Nordeste 21 Nordeste 0 1003.7 -- 75
2021-01-12 22:00:00 7.1 17 Nordeste 22 Nordeste 0 1003.6 -- 75
2021-01-12 21:00:00 7.2 17 Nordeste 26 Nordeste 0 1003.7 -- 74
2021-01-12 20:00:00 7.2 20 Nordeste 29 Nordeste 0 1003.6 -- 75
2021-01-12 19:00:00 7.2 23 Nordeste 28 Nordeste 0 1003.4 -- 77
2021-01-12 18:00:00 8.1 17 Norte 31 Norte 0 1003.2 -- 74
2021-01-12 17:00:00 8.8 19 Norte 32 Norte 0 1002.9 -- 72
2021-01-12 16:00:00 8.9 18 Norte 29 Norte 0 1002.6 -- 72
2021-01-12 15:00:00 8.9 16 Norte 27 Norte 0 1002.4 -- 72
2021-01-12 14:00:00 8.9 15 Norte 23 Norte 0 1002.7 -- 70
2021-01-12 13:00:00 8.7 10 Nordeste 27 Nordeste 0 1003.6 -- 69
2021-01-12 12:00:00 8.3 17 Nordeste 27 Nordeste 0 1004 -- 69
2021-01-12 11:00:00 7.5 12 Este 23 Este 0 1003.6 -- 69
2021-01-12 10:00:00 6.9 17 Nordeste 38 Nordeste 0 1002.6 -- 69
2021-01-12 09:00:00 6.4 18 Nordeste 33 Nordeste 0 1002.2 -- 67
2021-01-12 08:00:00 5.5 22 Este 30 Este 0 1001.5 -- 62
2021-01-12 07:00:00 5.8 9 Nordeste 17 Este 0 1001.1 -- 64
2021-01-12 06:00:00 5.6 11 Este 32 Este 0 1000.7 -- 68
2021-01-12 05:00:00 6 18 Este 31 Este 0 1000.9 -- 71
2021-01-12 04:00:00 5.8 20 Este 32 Este 0 1001.1 -- 71
2021-01-12 03:00:00 6 20 Este 36 Este 0 1000.9 -- 69
2021-01-12 02:00:00 5.9 24 Este 38 Este 0 1000.3 -- 69
2021-01-12 01:00:00 5.9 26 Este 41 Nordeste 0 1000.4 -- 70
2021-01-12 00:00:00 5.8 26 Nordeste 48 Nordeste 0 1000.5 -- 71
2021-01-11 23:00:00 5.6 27 Nordeste 49 Nordeste 0 1000.3 -- 74
2021-01-11 22:00:00 6.1 33 Nordeste 45 Nordeste 0 999.7 -- 74
2021-01-11 21:00:00 6.5 22 Nordeste 38 Nordeste 0 999.7 -- 75
2021-01-11 20:00:00 6.9 26 Nordeste 42 Nordeste 0 999.5 -- 73
2021-01-11 19:00:00 7.1 23 Nordeste 40 Nordeste 0 999 -- 73
2021-01-11 18:00:00 7.9 16 Nordeste 41 Nordeste 0 998.9 -- 68
2021-01-11 17:00:00 8.9 22 Nordeste 40 Nordeste 0 998.7 -- 63
2021-01-11 16:00:00 9.2 24 Nordeste 45 Nordeste 0 998.1 -- 61
2021-01-11 15:00:00 9.4 25 Nordeste 50 Este 0 997.9 -- 60
2021-01-11 14:00:00 9.2 26 Nordeste 50 Nordeste 0 998.1 -- 57
2021-01-11 13:00:00 8.7 24 Nordeste 50 Nordeste 0 998.8 -- 58
2021-01-11 12:00:00 7.8 23 Nordeste 45 Este 0 999.7 -- 63
2021-01-11 11:00:00 6.7 21 Este 43 Nordeste 0 999.5 -- 67
2021-01-11 10:00:00 5.8 20 Nordeste 39 Este 0 998.7 -- 68
2021-01-11 09:00:00 5.4 22 Nordeste 40 Nordeste 0 998.2 -- 68
2021-01-11 08:00:00 6 20 Este 33 Nordeste 0 997.8 -- 64
2021-01-11 07:00:00 5.9 19 Nordeste 36 Nordeste 0 997.8 -- 63
2021-01-11 06:00:00 5.6 21 Nordeste 34 Nordeste 0 997.5 -- 66
2021-01-11 05:00:00 5.7 19 Nordeste 36 Nordeste 0 997.7 -- 65
2021-01-11 04:00:00 5.6 20 Nordeste 42 Este 0 997.5 -- 64
2021-01-11 03:00:00 5.8 21 Nordeste 39 Nordeste 0 997.1 -- 63
2021-01-11 02:00:00 5.7 23 Nordeste 44 Nordeste 0 996.8 -- 65
2021-01-11 01:00:00 5.8 21 Nordeste 50 Este 0 996.9 -- 61
2021-01-11 00:00:00 6 26 Nordeste 60 Nordeste 0 996.7 -- 62
2021-01-10 23:00:00 6 26 Nordeste 48 Nordeste 0 996.2 -- 61
2021-01-10 22:00:00 5.8 29 Nordeste 59 Nordeste 0 995.6 -- 58
2021-01-10 21:00:00 6.1 44 Nordeste 76 Este 0 994.4 -- 58
2021-01-10 20:00:00 5.9 36 Nordeste 62 Nordeste 0 994.1 -- 61
2021-01-10 19:00:00 6.2 39 Nordeste 67 Nordeste 0 993.6 -- 61
2021-01-10 18:00:00 7.1 44 Nordeste 64 Nordeste 0 993 -- 63
2021-01-10 17:00:00 7.7 43 Nordeste 72 Este 0 993 -- 52
2021-01-10 16:00:00 7.9 32 Nordeste 65 Nordeste 0 992.7 -- 61
2021-01-10 15:00:00 8.5 30 Nordeste 71 Nordeste 0 992.5 -- 60
2021-01-10 14:00:00 8.6 32 Nordeste 65 Nordeste 0 992.8 -- 55
2021-01-10 13:00:00 8.6 25 Nordeste 46 Este 0 992.8 -- 59
2021-01-10 12:00:00 7.7 32 Nordeste 62 Nordeste 0 993.3 -- 61
2021-01-10 11:00:00 7.6 26 Nordeste 57 Nordeste 0 992.6 -- 58
2021-01-10 10:00:00 6.8 31 Nordeste 57 Nordeste 0 991.5 -- 63
2021-01-10 09:00:00 6.4 24 Nordeste 51 Nordeste 0 990.8 -- 65
2021-01-10 08:00:00 6.1 29 Nordeste 54 Nordeste 0 989.9 -- 76
2021-01-10 07:00:00 5.8 26 Nordeste 57 Nordeste 0 989.4 -- 80
2021-01-10 06:00:00 6 27 Nordeste 47 Este 0 988.9 -- 76
2021-01-10 05:00:00 5.4 28 Nordeste 65 Nordeste 0 988.3 -- 82
2021-01-10 04:00:00 5.6 32 Nordeste 71 Nordeste 0 988.2 -- 81
2021-01-10 03:00:00 6.2 40 Nordeste 74 Nordeste 0 987.3 -- 75
2021-01-10 02:00:00 6.2 40 Nordeste 84 Nordeste 0.2 986.7 -- 74
2021-01-10 01:00:00 4.9 40 Nordeste 86 Nordeste 0 986.4 -- 85
2021-01-10 00:00:00 5.3 42 Nordeste 83 Nordeste 0.2 986.2 -- 81
2021-01-09 23:00:00 5.1 42 Nordeste 75 Nordeste 0 985.9 -- 81
2021-01-09 22:00:00 5 32 Nordeste 72 Nordeste 0 986.3 -- 76
2021-01-09 21:00:00 5.3 33 Nordeste 75 Nordeste 0 985.9 -- 74
2021-01-09 20:00:00 5.1 40 Nordeste 80 Nordeste 0 985.3 -- 71
2021-01-09 19:00:00 5.3 40 Nordeste 74 Este 0.2 984.9 -- 66
2021-01-09 18:00:00 5.1 37 Nordeste 70 Nordeste 0 984.4 -- 71
2021-01-09 17:00:00 5.6 36 Nordeste 67 Nordeste 0 984.1 -- 68
2021-01-09 16:00:00 6.1 31 Nordeste 63 Nordeste 0 983.6 -- 74
2021-01-09 15:00:00 5 32 Nordeste 74 Nordeste 0.4 983.3 -- 83
2021-01-09 14:00:00 5.6 40 Nordeste 85 Este 0 983.5 -- 77
2021-01-09 13:00:00 6.9 37 Nordeste 67 Nordeste 0 984 -- 69
2021-01-09 12:00:00 5.9 28 Nordeste 50 Nordeste 0 985 -- 76
2021-01-09 11:00:00 4.2 27 Nordeste 55 Nordeste 0 984.7 -- 77
2021-01-09 10:00:00 3.7 31 Nordeste 51 Nordeste 0 984.8 -- 81
2021-01-09 09:00:00 3.4 27 Nordeste 50 Nordeste 0 984.1 -- 84
2021-01-09 08:00:00 3.4 30 Nordeste 53 Nordeste 0 983.6 -- 84
2021-01-09 07:00:00 3.3 31 Nordeste 48 Nordeste 0 983.6 -- 82
2021-01-09 06:00:00 3.2 30 Nordeste 53 Nordeste 0 983.6 -- 82
2021-01-09 05:00:00 3.5 29 Nordeste 50 Este 0 983.5 -- 82
2021-01-09 04:00:00 3.2 30 Nordeste 46 Nordeste 0 983.8 -- 87
2021-01-09 03:00:00 3.1 28 Nordeste 44 Nordeste 0 983.7 -- 88
2021-01-09 02:00:00 3.4 32 Nordeste 56 Nordeste 0.2 983.9 -- 85
2021-01-09 01:00:00 3.6 32 Nordeste 53 Nordeste 0.4 983.9 -- 84
2021-01-09 00:00:00 4.3 36 Nordeste 59 Nordeste 0.8 984.8 -- 83
2021-01-08 23:00:00 4.1 32 Nordeste 47 Nordeste 0 984.7 -- 81
2021-01-08 22:00:00 4.3 35 Nordeste 53 Nordeste 0 984.8 -- 82
2021-01-08 21:00:00 4.3 28 Nordeste 45 Nordeste 0 985.4 -- 85
2021-01-08 20:00:00 4.9 26 Nordeste 50 Nordeste 0 985.2 -- 79
2021-01-08 19:00:00 5.7 33 Nordeste 48 Nordeste 0 984.9 -- 76
2021-01-08 18:00:00 6.1 29 Nordeste 53 Nordeste 0 985.1 -- 74
2021-01-08 17:00:00 7.2 29 Nordeste 56 Nordeste 0 984.9 -- 64
2021-01-08 16:00:00 7.3 27 Nordeste 53 Nordeste 0 984.9 -- 61
2021-01-08 15:00:00 7.5 25 Nordeste 51 Nordeste 0 985.1 -- 57
2021-01-08 14:00:00 7.2 27 Nordeste 51 Este 0 986 -- 53
2021-01-08 13:00:00 6.6 17 Nordeste 38 Este 0 987.1 -- 56
2021-01-08 12:00:00 5.9 17 Nordeste 33 Este 0 987.9 -- 61
2021-01-08 11:00:00 4.7 21 Nordeste 48 Este 0 988 -- 66
2021-01-08 10:00:00 4.1 27 Nordeste 51 Nordeste 0 987.8 -- 73
2021-01-08 09:00:00 3.7 26 Nordeste 41 Nordeste 0 987.4 -- 71
2021-01-08 08:00:00 3.5 22 Nordeste 37 Nordeste 0 987.2 -- 72
2021-01-08 07:00:00 3.6 21 Nordeste 43 Nordeste 0 986.9 -- 76
2021-01-08 06:00:00 3.9 20 Nordeste 39 Este 0 987.2 -- 73
2021-01-08 05:00:00 4.2 27 Nordeste 53 Nordeste 0 987.3 -- 76
2021-01-08 04:00:00 4 28 Nordeste 51 Nordeste 0 987.4 -- 83
2021-01-08 03:00:00 4.4 29 Nordeste 45 Nordeste 0 987.4 -- 78
2021-01-08 02:00:00 4.4 22 Nordeste 40 Nordeste 0 987.9 -- 76
2021-01-08 01:00:00 4.5 27 Nordeste 46 Nordeste 0 987.8 -- 81
2021-01-08 00:00:00 4.9 26 Nordeste 43 Nordeste 0 988 -- 79
2021-01-07 23:00:00 5 26 Este 41 Este 0.2 988.1 -- 79
2021-01-07 22:00:00 4.9 26 Nordeste 41 Nordeste 0 988 -- 81
2021-01-07 21:00:00 5 23 Nordeste 37 Este 0 987.9 -- 83
2021-01-07 20:00:00 5.1 23 Nordeste 48 Nordeste 0 987.7 -- 84
2021-01-07 19:00:00 4.9 30 Nordeste 49 Nordeste 0 987.3 -- 81
2021-01-07 18:00:00 5.4 24 Nordeste 43 Nordeste 0 987.1 -- 83
2021-01-07 17:00:00 7.5 16 Nordeste 38 Nordeste 0 987.1 -- 72
2021-01-07 16:00:00 7.3 18 Nordeste 33 Nordeste 0 986.8 -- 75
2021-01-07 15:00:00 7.4 24 Norte 38 Norte 0 986.6 -- 74
2021-01-07 14:00:00 7.2 21 Nordeste 33 Nordeste 0 986.9 -- 70
2021-01-07 13:00:00 7.2 15 Nordeste 32 Nordeste 0 987.4 -- 70
2021-01-07 12:00:00 6.4 16 Nordeste 31 Este 0 988 -- 71
2021-01-07 11:00:00 5.1 19 Este 34 Nordeste 0 988 -- 77
2021-01-07 10:00:00 4.4 19 Nordeste 40 Nordeste 0 987.6 -- 81
2021-01-07 09:00:00 4.3 25 Nordeste 46 Nordeste 0 986.9 -- 77
2021-01-07 08:00:00 3.7 30 Nordeste 51 Nordeste 0 986.7 -- 85
2021-01-07 07:00:00 4.3 25 Nordeste 48 Nordeste 0 986 -- 79
2021-01-07 06:00:00 4.6 27 Nordeste 38 Nordeste 0 986.1 -- 76
2021-01-07 05:00:00 4.8 26 Nordeste 40 Nordeste 0 986.1 -- 78
2021-01-07 04:00:00 4.7 21 Este 38 Este 0 986.4 -- 75
2021-01-07 03:00:00 4.7 22 Nordeste 35 Nordeste 0 986.4 -- 73
2021-01-07 02:00:00 4.4 17 Este 32 Este 0 986.7 -- 71
2021-01-07 01:00:00 4.9 17 Este 35 Este 0 986.9 -- 67
2021-01-07 00:00:00 4.8 22 Nordeste 36 Este 0 987.1 -- 72
2021-01-06 23:00:00 4.9 24 Nordeste 36 Este 0 987.3 -- 71
2021-01-06 22:00:00 4.7 23 Nordeste 36 Nordeste 0 987.3 -- 75
2021-01-06 21:00:00 5.1 22 Nordeste 36 Nordeste 0 987.2 -- 74
2021-01-06 20:00:00 5.2 22 Nordeste 33 Nordeste 0 987.2 -- 77
2021-01-06 19:00:00 5.4 20 Nordeste 32 Nordeste 0 986.9 -- 75
2021-01-06 18:00:00 6.1 18 Nordeste 32 Nordeste 0 986.5 -- 70
2021-01-06 17:00:00 7.3 15 Nordeste 33 Nordeste 0 986.5 -- 64
2021-01-06 16:00:00 7.7 15 Nordeste 39 Este 0 986.4 -- 63
2021-01-06 15:00:00 8 19 Nordeste 34 Nordeste 0 986.3 -- 55
2021-01-06 14:00:00 8.3 12 Este 33 Este 0 986.7 -- 57
2021-01-06 13:00:00 7.5 18 Este 40 Este 0 987.2 -- 62
2021-01-06 12:00:00 6.5 19 Este 44 Este 0 987.6 -- 67
2021-01-06 11:00:00 5.5 25 Este 39 Nordeste 0 987.6 -- 69
2021-01-06 10:00:00 4.9 15 Este 36 Este 0 987.7 -- 70
2021-01-06 09:00:00 4.6 16 Nordeste 30 Este 0 986.9 -- 69
2021-01-06 08:00:00 4.3 21 Este 37 Nordeste 0 986.6 -- 74
2021-01-06 07:00:00 4.4 19 Nordeste 35 Este 0 986.2 -- 71
2021-01-06 06:00:00 4 19 Este 33 Este 0 986 -- 76
2021-01-06 05:00:00 4.6 21 Este 39 Este 0 986 -- 72
2021-01-06 04:00:00 4.4 19 Este 38 Este 0 986 -- 72
2021-01-06 03:00:00 4.9 21 Este 39 Este 0 985.7 -- 71
2021-01-06 02:00:00 4.5 19 Este 31 Nordeste 0 985.8 -- 74
2021-01-06 01:00:00 4.2 14 Este 26 Este 0 986.2 -- 79
2021-01-06 00:00:00 4.7 18 Este 28 Nordeste 0 986.1 -- 78
2021-01-05 23:00:00 4.8 15 Este 28 Este 0 985.8 -- 77
2021-01-05 22:00:00 5.2 16 Este 29 Este 0 985.8 -- 80
2021-01-05 21:00:00 4.8 16 Este 25 Este 0 985.9 -- 82
2021-01-05 20:00:00 5.2 19 Nordeste 34 Nordeste 0 985.6 -- 78
2021-01-05 19:00:00 5.5 18 Nordeste 27 Nordeste 0 985.2 -- 73
2021-01-05 18:00:00 6.3 14 Nordeste 29 Norte 0 985.2 -- 80
2021-01-05 17:00:00 7.2 16 Nordeste 28 Nordeste 0 984.9 -- 77
2021-01-05 16:00:00 7.1 12 Norte 26 Norte 0 984.9 -- 84
2021-01-05 15:00:00 7.4 13 Nordeste 30 Nordeste 0.2 985 -- 80
2021-01-05 14:00:00 7.4 15 Norte 23 Nordeste 0 985.5 -- 79
2021-01-05 13:00:00 6.6 12 Norte 33 Nordeste 0 986.3 -- 79
2021-01-05 12:00:00 5.4 17 Este 31 Nordeste 0.2 986.8 -- 83
2021-01-05 11:00:00 6.3 10 Norte 29 Norte 0 987 -- 86
2021-01-05 10:00:00 5.7 15 Nordeste 27 Este 0 987 -- 84
2021-01-05 09:00:00 4.9 15 Nordeste 24 Este 0 986.7 -- 82
2021-01-05 08:00:00 5 19 Este 24 Este 0 986.5 -- 81
2021-01-05 07:00:00 5.1 14 Este 22 Este 0 986.4 -- 80
2021-01-05 06:00:00 4.9 18 Nordeste 28 Nordeste 0 986.3 -- 80
2021-01-05 05:00:00 5 20 Nordeste 27 Nordeste 0 986.7 -- 78
2021-01-05 04:00:00 4.8 19 Nordeste 26 Nordeste 0 986.8 -- 78
2021-01-05 03:00:00 4.7 17 Nordeste 24 Nordeste 0 986.7 -- 78
2021-01-05 02:00:00 4.6 18 Nordeste 25 Nordeste 0 986.8 -- 77
2021-01-05 01:00:00 4.5 17 Nordeste 26 Nordeste 0 986.9 -- 77
2021-01-05 00:00:00 5.1 19 Nordeste 28 Nordeste 0 987.3 -- 72
2021-01-04 23:00:00 4.4 19 Este 27 Este 0 987.3 -- 77
2021-01-04 22:00:00 4.4 18 Este 30 Este 0 987.3 -- 80
2021-01-04 21:00:00 4.6 22 Nordeste 35 Nordeste 0 987 -- 79
2021-01-04 20:00:00 4.7 24 Nordeste 35 Nordeste 0 986.8 -- 78
2021-01-04 19:00:00 4.5 23 Nordeste 34 Nordeste 0 986.4 -- 80
2021-01-04 18:00:00 5 16 Nordeste 24 Nordeste 0 986.2 -- 80
2021-01-04 17:00:00 6.5 13 Nordeste 26 Nordeste 0 985.9 -- 77
2021-01-04 16:00:00 7.2 12 Norte 21 Noroeste 0 985.7 -- 76
2021-01-04 15:00:00 7.1 6 Nordeste 17 Norte 0 985.6 -- 73
2021-01-04 14:00:00 6.4 4 Norte 22 Este 0 986 -- 77
2021-01-04 13:00:00 5 18 Este 38 Nordeste 0.2 986.7 -- 85
2021-01-04 12:00:00 6.4 4 Noroeste 19 Este 0 987.1 -- 80
2021-01-04 11:00:00 4.8 14 Nordeste 34 Norte 0.6 987 -- 80
2021-01-04 10:00:00 4.6 22 Nordeste 42 Nordeste 0.4 986.9 -- 87
2021-01-04 09:00:00 4.5 14 Este 35 Este 0.4 986.4 -- 83
2021-01-04 08:00:00 5.5 14 Norte 31 Norte 0 986.4 -- 77
2021-01-04 07:00:00 5.4 14 Nordeste 31 Nordeste 0.2 986.6 -- 80
2021-01-04 06:00:00 6.4 17 Noroeste 39 Norte 0 986.5 -- 77
2021-01-04 05:00:00 5.8 21 Norte 45 Norte 0.2 987 -- 73
2021-01-04 04:00:00 5.4 16 Norte 31 Nordeste 0.2 987.2 -- 81
2021-01-04 03:00:00 5.6 19 Norte 31 Norte 0 987.5 -- 78
2021-01-04 02:00:00 5.5 24 Norte 40 Nordeste 0.4 987.7 -- 76
2021-01-04 01:00:00 5.5 19 Nordeste 33 Nordeste 0.2 988.1 -- 75
2021-01-04 00:00:00 5.1 28 Nordeste 36 Nordeste 0 988.4 -- 81
2021-01-03 23:00:00 5.7 26 Nordeste 37 Norte 0 988.7 -- 80
2021-01-03 22:00:00 6.6 21 Nordeste 27 Nordeste 0 988.9 -- 69
2021-01-03 21:00:00 6.5 14 Norte 29 Norte 0 989 -- 78
2021-01-03 20:00:00 6.2 23 Nordeste 46 Nordeste 0 989.2 -- 79
2021-01-03 19:00:00 6.5 17 Norte 33 Nordeste 0 989 -- 82
2021-01-03 18:00:00 7 23 Norte 30 Norte 0 988.8 -- 82
2021-01-03 17:00:00 6.8 20 Norte 51 Norte 0.4 988.9 -- 85
2021-01-03 16:00:00 7.8 27 Norte 43 Norte 0 989 -- 82
2021-01-03 15:00:00 6.8 27 Norte 64 Norte 0.2 989.6 -- 87
2021-01-03 14:00:00 7.6 13 Noroeste 58 Norte 0.2 990.1 -- 84
2021-01-03 13:00:00 8.1 21 Noroeste 46 Norte 0 991.1 -- 73
2021-01-03 12:00:00 7.7 16 Nordeste 42 Norte 0 991.8 -- 75
2021-01-03 11:00:00 7.7 19 Norte 40 Nordeste 0 991.9 -- 62
2021-01-03 10:00:00 7.5 23 Norte 49 Norte 0 991.8 -- 72
2021-01-03 09:00:00 7.5 24 Norte 44 Norte 0 991.4 -- 70
2021-01-03 08:00:00 7.4 22 Norte 52 Norte 0 991.6 -- 77
2021-01-03 07:00:00 7.7 21 Norte 40 Norte 0 991.4 -- 72
2021-01-03 06:00:00 7.3 24 Norte 49 Norte 0 991.5 -- 74
2021-01-03 05:00:00 7.8 28 Norte 50 Norte 0 991.8 -- 68
2021-01-03 04:00:00 7.2 27 Norte 44 Norte 0 992.3 -- 77
2021-01-03 03:00:00 6.7 32 Nordeste 41 Nordeste 0 992.4 -- 80
2021-01-03 02:00:00 6.6 28 Nordeste 37 Nordeste 0 992.6 -- 81
2021-01-03 01:00:00 6 21 Nordeste 30 Nordeste 0 993.1 -- 81
2021-01-03 00:00:00 6.8 22 Norte 37 Nordeste 0 993.4 -- 81
2021-01-02 23:00:00 6.2 27 Nordeste 49 Nordeste 0.8 993.4 -- 80
2021-01-02 22:00:00 6.9 27 Nordeste 41 Nordeste 0 993.5 -- 78
2021-01-02 21:00:00 6.6 28 Nordeste 41 Nordeste 0 993.2 -- 74
2021-01-02 20:00:00 6.3 22 Nordeste 35 Nordeste 0 993.2 -- 82
2021-01-02 19:00:00 6.3 16 Nordeste 34 Nordeste 0.2 993.1 -- 84
2021-01-02 18:00:00 6.6 22 Nordeste 42 Nordeste 1.2 992.6 -- 82
2021-01-02 17:00:00 7.4 23 Norte 39 Norte 0.4 992.2 -- 82
2021-01-02 16:00:00 8.1 17 Norte 33 Norte 0 991.9 -- 78
2021-01-02 15:00:00 7.2 19 Nordeste 38 Norte 0.2 991.8 -- 85
2021-01-02 14:00:00 7.6 14 Nordeste 30 Nordeste 0.4 991.8 -- 83